sensor_id;sensor_type;location;lat;lon;timestamp;P1;P2;P0
80861;PMS5003;71798;54.942;73.444;2023-09-18T00:02:25;37.00;30.00;18.50
80861;PMS5003;71798;54.942;73.444;2023-09-18T00:04:52;37.00;30.00;19.00
80861;PMS5003;71798;54.942;73.444;2023-09-18T00:07:18;40.00;33.00;20.00
80861;PMS5003;71798;54.942;73.444;2023-09-18T00:09:44;40.75;32.00;19.00
80861;PMS5003;71798;54.942;73.444;2023-09-18T00:12:10;36.75;30.75;18.75
80861;PMS5003;71798;54.942;73.444;2023-09-18T00:14:36;40.75;33.00;21.00
80861;PMS5003;71798;54.942;73.444;2023-09-18T00:17:03;38.00;30.50;19.00
80861;PMS5003;71798;54.942;73.444;2023-09-18T00:19:29;37.75;30.00;19.00
80861;PMS5003;71798;54.942;73.444;2023-09-18T00:21:56;37.00;30.00;18.25
80861;PMS5003;71798;54.942;73.444;2023-09-18T00:24:26;43.00;35.00;21.00
80861;PMS5003;71798;54.942;73.444;2023-09-18T00:26:52;38.50;31.00;20.00
80861;PMS5003;71798;54.942;73.444;2023-09-18T00:29:19;35.25;29.75;18.00
80861;PMS5003;71798;54.942;73.444;2023-09-18T00:31:45;36.75;29.00;19.00
80861;PMS5003;71798;54.942;73.444;2023-09-18T00:34:11;40.00;31.00;18.75
80861;PMS5003;71798;54.942;73.444;2023-09-18T00:36:37;48.00;38.00;24.00
80861;PMS5003;71798;54.942;73.444;2023-09-18T00:39:04;39.00;30.25;19.00
80861;PMS5003;71798;54.942;73.444;2023-09-18T00:41:30;34.00;28.00;17.00
80861;PMS5003;71798;54.942;73.444;2023-09-18T00:43:56;35.50;29.50;18.00
80861;PMS5003;71798;54.942;73.444;2023-09-18T00:46:22;33.50;28.00;18.00
80861;PMS5003;71798;54.942;73.444;2023-09-18T00:48:49;37.00;30.00;19.00
80861;PMS5003;71798;54.942;73.444;2023-09-18T00:51:15;36.00;30.00;19.00
80861;PMS5003;71798;54.942;73.444;2023-09-18T00:53:45;44.50;35.00;21.00
80861;PMS5003;71798;54.942;73.444;2023-09-18T00:56:15;39.25;32.00;20.75
80861;PMS5003;71798;54.942;73.444;2023-09-18T00:58:41;44.00;35.75;21.75
80861;PMS5003;71798;54.942;73.444;2023-09-18T01:01:08;44.00;36.00;22.00
80861;PMS5003;71798;54.942;73.444;2023-09-18T01:03:36;45.25;34.75;22.00
80861;PMS5003;71798;54.942;73.444;2023-09-18T01:06:02;53.50;42.50;27.00
80861;PMS5003;71798;54.942;73.444;2023-09-18T01:08:29;45.00;36.00;22.00
80861;PMS5003;71798;54.942;73.444;2023-09-18T01:11:00;43.50;34.50;22.00
80861;PMS5003;71798;54.942;73.444;2023-09-18T01:13:36;47.00;37.00;23.00
80861;PMS5003;71798;54.942;73.444;2023-09-18T01:16:14;44.00;35.50;22.00
80861;PMS5003;71798;54.942;73.444;2023-09-18T01:18:52;44.50;34.50;22.00
80861;PMS5003;71798;54.942;73.444;2023-09-18T01:21:19;40.25;32.75;20.00
80861;PMS5003;71798;54.942;73.444;2023-09-18T01:23:47;45.75;36.00;23.00
80861;PMS5003;71798;54.942;73.444;2023-09-18T01:26:14;44.00;36.00;22.75
80861;PMS5003;71798;54.942;73.444;2023-09-18T01:28:40;47.00;37.75;23.00
80861;PMS5003;71798;54.942;73.444;2023-09-18T01:31:06;44.00;33.75;20.75
80861;PMS5003;71798;54.942;73.444;2023-09-18T01:33:34;43.00;34.00;20.50
80861;PMS5003;71798;54.942;73.444;2023-09-18T01:36:00;44.00;34.00;21.50
80861;PMS5003;71798;54.942;73.444;2023-09-18T01:38:27;47.75;38.00;23.00
80861;PMS5003;71798;54.942;73.444;2023-09-18T01:40:53;44.75;36.50;23.75
80861;PMS5003;71798;54.942;73.444;2023-09-18T01:43:20;53.00;42.00;26.00
80861;PMS5003;71798;54.942;73.444;2023-09-18T01:45:46;52.25;41.00;26.50
80861;PMS5003;71798;54.942;73.444;2023-09-18T01:48:13;48.25;38.50;23.50
80861;PMS5003;71798;54.942;73.444;2023-09-18T01:50:39;52.00;41.00;25.00
80861;PMS5003;71798;54.942;73.444;2023-09-18T01:53:06;51.50;40.75;25.75
80861;PMS5003;71798;54.942;73.444;2023-09-18T01:55:32;53.50;40.75;24.50
80861;PMS5003;71798;54.942;73.444;2023-09-18T01:57:58;51.00;40.00;25.00
80861;PMS5003;71798;54.942;73.444;2023-09-18T02:00:24;46.00;37.00;23.00
80861;PMS5003;71798;54.942;73.444;2023-09-18T02:02:53;47.00;36.25;23.00
80861;PMS5003;71798;54.942;73.444;2023-09-18T02:05:19;41.00;33.00;21.00
80861;PMS5003;71798;54.942;73.444;2023-09-18T02:07:45;41.00;33.25;20.00
80861;PMS5003;71798;54.942;73.444;2023-09-18T02:10:11;45.75;36.00;23.00
80861;PMS5003;71798;54.942;73.444;2023-09-18T02:12:40;53.00;41.25;25.50
80861;PMS5003;71798;54.942;73.444;2023-09-18T02:15:06;46.75;37.00;24.00
80861;PMS5003;71798;54.942;73.444;2023-09-18T02:17:32;52.00;42.00;26.00
80861;PMS5003;71798;54.942;73.444;2023-09-18T02:19:58;49.00;38.25;25.00
80861;PMS5003;71798;54.942;73.444;2023-09-18T02:22:31;46.50;36.75;23.25
80861;PMS5003;71798;54.942;73.444;2023-09-18T02:24:58;49.00;40.00;24.00
80861;PMS5003;71798;54.942;73.444;2023-09-18T02:27:26;50.00;39.00;24.00
80861;PMS5003;71798;54.942;73.444;2023-09-18T02:29:53;50.00;40.00;24.00
80861;PMS5003;71798;54.942;73.444;2023-09-18T02:32:19;48.50;38.00;24.00
80861;PMS5003;71798;54.942;73.444;2023-09-18T02:34:45;51.00;39.25;25.00
80861;PMS5003;71798;54.942;73.444;2023-09-18T02:37:11;51.00;40.00;25.00
80861;PMS5003;71798;54.942;73.444;2023-09-18T02:39:38;49.75;38.75;24.75
80861;PMS5003;71798;54.942;73.444;2023-09-18T02:42:04;43.50;34.50;21.50
80861;PMS5003;71798;54.942;73.444;2023-09-18T02:44:30;44.25;35.00;21.50
80861;PMS5003;71798;54.942;73.444;2023-09-18T02:46:56;44.00;36.00;24.00
80861;PMS5003;71798;54.942;73.444;2023-09-18T02:49:22;45.75;37.00;22.00
80861;PMS5003;71798;54.942;73.444;2023-09-18T02:51:48;54.00;42.00;26.00
80861;PMS5003;71798;54.942;73.444;2023-09-18T02:54:16;40.00;33.00;20.75
80861;PMS5003;71798;54.942;73.444;2023-09-18T02:56:42;42.25;34.25;20.50
80861;PMS5003;71798;54.942;73.444;2023-09-18T02:59:08;46.75;37.00;23.00
80861;PMS5003;71798;54.942;73.444;2023-09-18T03:01:34;37.00;30.00;18.00
80861;PMS5003;71798;54.942;73.444;2023-09-18T03:04:01;41.00;32.00;20.00
80861;PMS5003;71798;54.942;73.444;2023-09-18T03:07:33;49.75;37.00;21.25
80861;PMS5003;71798;54.942;73.444;2023-09-18T03:11:10;43.00;33.00;20.00
80861;PMS5003;71798;54.942;73.444;2023-09-18T03:14:34;47.00;36.00;21.00
80861;PMS5003;71798;54.942;73.444;2023-09-18T03:18:06;45.00;34.50;20.00
80861;PMS5003;71798;54.942;73.444;2023-09-18T03:25:13;43.75;34.50;21.25
80861;PMS5003;71798;54.942;73.444;2023-09-18T03:28:44;46.25;36.00;22.00
80861;PMS5003;71798;54.942;73.444;2023-09-18T03:32:16;49.00;37.00;23.00
80861;PMS5003;71798;54.942;73.444;2023-09-18T03:35:48;45.00;35.00;22.00
80861;PMS5003;71798;54.942;73.444;2023-09-18T03:39:19;46.00;38.00;23.00
80861;PMS5003;71798;54.942;73.444;2023-09-18T03:41:45;48.75;39.00;24.00
80861;PMS5003;71798;54.942;73.444;2023-09-18T03:44:11;47.75;38.50;24.00
80861;PMS5003;71798;54.942;73.444;2023-09-18T03:46:38;43.75;36.00;22.00
80861;PMS5003;71798;54.942;73.444;2023-09-18T03:49:04;48.00;37.00;23.00
80861;PMS5003;71798;54.942;73.444;2023-09-18T03:51:35;50.25;39.00;24.00
80861;PMS5003;71798;54.942;73.444;2023-09-18T03:54:01;51.75;41.00;25.00
80861;PMS5003;71798;54.942;73.444;2023-09-18T03:56:27;49.00;39.00;24.00
80861;PMS5003;71798;54.942;73.444;2023-09-18T03:58:54;52.00;40.00;23.00
80861;PMS5003;71798;54.942;73.444;2023-09-18T04:01:21;44.00;35.00;22.00
80861;PMS5003;71798;54.942;73.444;2023-09-18T04:03:49;48.50;38.25;22.25
80861;PMS5003;71798;54.942;73.444;2023-09-18T04:06:15;46.00;37.50;24.00
80861;PMS5003;71798;54.942;73.444;2023-09-18T04:08:41;50.00;40.00;25.00
80861;PMS5003;71798;54.942;73.444;2023-09-18T04:11:07;48.25;38.50;23.75
80861;PMS5003;71798;54.942;73.444;2023-09-18T04:13:35;42.25;35.00;21.00
80861;PMS5003;71798;54.942;73.444;2023-09-18T04:16:04;45.00;36.50;23.00
80861;PMS5003;71798;54.942;73.444;2023-09-18T04:18:30;46.75;38.75;23.50
80861;PMS5003;71798;54.942;73.444;2023-09-18T04:20:56;47.50;39.00;24.00
80861;PMS5003;71798;54.942;73.444;2023-09-18T04:23:23;51.00;41.00;25.50
80861;PMS5003;71798;54.942;73.444;2023-09-18T04:25:51;46.25;38.25;24.00
80861;PMS5003;71798;54.942;73.444;2023-09-18T04:28:18;47.00;38.00;24.00
80861;PMS5003;71798;54.942;73.444;2023-09-18T04:30:45;30.00;25.00;16.00
80861;PMS5003;71798;54.942;73.444;2023-09-18T04:33:12;32.00;27.00;17.00
80861;PMS5003;71798;54.942;73.444;2023-09-18T04:35:38;36.00;30.00;19.00
80861;PMS5003;71798;54.942;73.444;2023-09-18T04:38:07;35.00;29.00;18.00
80861;PMS5003;71798;54.942;73.444;2023-09-18T04:40:34;28.75;24.00;15.00
80861;PMS5003;71798;54.942;73.444;2023-09-18T04:43:01;32.00;26.00;15.00
80861;PMS5003;71798;54.942;73.444;2023-09-18T04:45:28;31.00;25.50;15.00
80861;PMS5003;71798;54.942;73.444;2023-09-18T04:47:54;27.00;23.00;15.00
80861;PMS5003;71798;54.942;73.444;2023-09-18T04:50:20;27.75;23.50;13.75
80861;PMS5003;71798;54.942;73.444;2023-09-18T04:52:46;30.00;25.00;15.00
80861;PMS5003;71798;54.942;73.444;2023-09-18T04:55:14;28.00;23.50;14.25
80861;PMS5003;71798;54.942;73.444;2023-09-18T04:57:41;30.00;25.00;15.00
80861;PMS5003;71798;54.942;73.444;2023-09-18T05:00:07;26.25;22.00;13.00
80861;PMS5003;71798;54.942;73.444;2023-09-18T05:02:38;27.50;22.75;13.75
80861;PMS5003;71798;54.942;73.444;2023-09-18T05:05:05;27.00;22.00;12.00
80861;PMS5003;71798;54.942;73.444;2023-09-18T05:07:31;27.00;23.00;12.00
80861;PMS5003;71798;54.942;73.444;2023-09-18T05:09:58;27.00;23.00;15.00
80861;PMS5003;71798;54.942;73.444;2023-09-18T05:12:24;35.00;28.00;18.00
80861;PMS5003;71798;54.942;73.444;2023-09-18T05:14:50;28.50;24.75;14.25
80861;PMS5003;71798;54.942;73.444;2023-09-18T05:17:17;36.75;29.00;17.00
80861;PMS5003;71798;54.942;73.444;2023-09-18T05:19:44;33.00;27.00;17.00
80861;PMS5003;71798;54.942;73.444;2023-09-18T05:22:10;29.50;24.50;14.00
80861;PMS5003;71798;54.942;73.444;2023-09-18T05:24:39;30.00;25.00;16.00
80861;PMS5003;71798;54.942;73.444;2023-09-18T05:27:06;29.00;24.00;15.00
80861;PMS5003;71798;54.942;73.444;2023-09-18T05:29:33;28.00;23.00;14.00
80861;PMS5003;71798;54.942;73.444;2023-09-18T05:32:00;27.50;23.00;14.00
80861;PMS5003;71798;54.942;73.444;2023-09-18T05:34:26;25.00;21.25;13.00
80861;PMS5003;71798;54.942;73.444;2023-09-18T05:36:52;28.75;23.25;13.75
80861;PMS5003;71798;54.942;73.444;2023-09-18T05:39:29;49.50;39.75;25.00
80861;PMS5003;71798;54.942;73.444;2023-09-18T05:41:55;37.00;29.00;19.00
80861;PMS5003;71798;54.942;73.444;2023-09-18T05:44:21;28.00;23.00;14.00
80861;PMS5003;71798;54.942;73.444;2023-09-18T05:46:48;22.00;18.00;11.00
80861;PMS5003;71798;54.942;73.444;2023-09-18T05:49:14;24.50;21.00;12.00
80861;PMS5003;71798;54.942;73.444;2023-09-18T05:51:40;23.00;18.00;10.00
80861;PMS5003;71798;54.942;73.444;2023-09-18T05:54:06;19.00;16.00;9.00
80861;PMS5003;71798;54.942;73.444;2023-09-18T05:56:33;23.00;20.00;12.00
80861;PMS5003;71798;54.942;73.444;2023-09-18T05:58:59;32.75;25.50;15.00
80861;PMS5003;71798;54.942;73.444;2023-09-18T06:01:25;28.00;22.00;13.00
80861;PMS5003;71798;54.942;73.444;2023-09-18T06:03:51;31.00;25.00;15.00
80861;PMS5003;71798;54.942;73.444;2023-09-18T06:06:17;31.00;25.00;14.75
80861;PMS5003;71798;54.942;73.444;2023-09-18T06:08:43;27.75;23.00;13.00
80861;PMS5003;71798;54.942;73.444;2023-09-18T06:11:09;29.00;24.00;14.00
80861;PMS5003;71798;54.942;73.444;2023-09-18T06:13:36;35.75;27.00;15.00
80861;PMS5003;71798;54.942;73.444;2023-09-18T06:16:04;34.25;27.00;16.00
80861;PMS5003;71798;54.942;73.444;2023-09-18T06:18:34;26.25;22.50;13.00
80861;PMS5003;71798;54.942;73.444;2023-09-18T06:21:03;30.25;24.00;14.00
80861;PMS5003;71798;54.942;73.444;2023-09-18T06:23:29;29.00;23.00;13.00
80861;PMS5003;71798;54.942;73.444;2023-09-18T06:25:56;29.00;23.00;13.00
80861;PMS5003;71798;54.942;73.444;2023-09-18T06:28:22;30.75;24.00;14.00
80861;PMS5003;71798;54.942;73.444;2023-09-18T06:30:48;30.00;24.00;12.00
80861;PMS5003;71798;54.942;73.444;2023-09-18T06:33:15;28.00;24.00;15.00
80861;PMS5003;71798;54.942;73.444;2023-09-18T06:35:41;24.00;19.00;11.00
80861;PMS5003;71798;54.942;73.444;2023-09-18T06:38:07;25.00;21.00;13.00
80861;PMS5003;71798;54.942;73.444;2023-09-18T06:40:36;23.75;20.00;12.00
80861;PMS5003;71798;54.942;73.444;2023-09-18T06:43:07;23.75;20.00;11.00
80861;PMS5003;71798;54.942;73.444;2023-09-18T06:45:33;25.00;21.00;13.00
80861;PMS5003;71798;54.942;73.444;2023-09-18T06:47:59;46.75;38.00;25.00
80861;PMS5003;71798;54.942;73.444;2023-09-18T06:50:28;28.00;23.00;13.00
80861;PMS5003;71798;54.942;73.444;2023-09-18T06:52:55;29.50;23.00;12.00
80861;PMS5003;71798;54.942;73.444;2023-09-18T06:55:21;28.75;22.75;13.00
80861;PMS5003;71798;54.942;73.444;2023-09-18T06:57:47;29.50;24.25;14.50
80861;PMS5003;71798;54.942;73.444;2023-09-18T07:00:16;28.00;23.00;13.00
80861;PMS5003;71798;54.942;73.444;2023-09-18T07:02:44;30.25;23.75;12.25
80861;PMS5003;71798;54.942;73.444;2023-09-18T07:05:10;28.50;21.75;11.50
80861;PMS5003;71798;54.942;73.444;2023-09-18T07:07:36;28.00;21.00;12.00
80861;PMS5003;71798;54.942;73.444;2023-09-18T07:10:02;26.75;21.50;12.75
80861;PMS5003;71798;54.942;73.444;2023-09-18T07:12:28;29.00;22.00;13.00
80861;PMS5003;71798;54.942;73.444;2023-09-18T07:14:54;28.00;23.00;12.00
80861;PMS5003;71798;54.942;73.444;2023-09-18T07:17:20;29.25;23.00;13.00
80861;PMS5003;71798;54.942;73.444;2023-09-18T07:19:48;30.00;24.00;13.75
80861;PMS5003;71798;54.942;73.444;2023-09-18T07:22:14;32.00;26.00;13.75
80861;PMS5003;71798;54.942;73.444;2023-09-18T07:24:40;24.25;20.25;12.00
80861;PMS5003;71798;54.942;73.444;2023-09-18T07:27:08;26.00;21.50;12.00
80861;PMS5003;71798;54.942;73.444;2023-09-18T07:29:34;27.00;22.00;13.00
80861;PMS5003;71798;54.942;73.444;2023-09-18T07:32:00;20.50;18.00;12.00
80861;PMS5003;71798;54.942;73.444;2023-09-18T07:34:27;23.00;20.00;12.00
80861;PMS5003;71798;54.942;73.444;2023-09-18T07:36:53;22.00;19.00;12.00
80861;PMS5003;71798;54.942;73.444;2023-09-18T07:39:21;25.75;21.00;12.00
80861;PMS5003;71798;54.942;73.444;2023-09-18T07:41:47;24.00;21.00;13.00
80861;PMS5003;71798;54.942;73.444;2023-09-18T07:44:18;28.00;23.00;14.00
80861;PMS5003;71798;54.942;73.444;2023-09-18T07:46:44;29.75;23.75;15.25
80861;PMS5003;71798;54.942;73.444;2023-09-18T07:49:10;33.00;26.00;15.00
80861;PMS5003;71798;54.942;73.444;2023-09-18T07:51:37;32.00;25.00;14.50
80861;PMS5003;71798;54.942;73.444;2023-09-18T07:54:03;30.00;25.00;14.75
80861;PMS5003;71798;54.942;73.444;2023-09-18T07:56:29;28.50;24.50;15.00
80861;PMS5003;71798;54.942;73.444;2023-09-18T07:59:00;28.25;23.00;14.00
80861;PMS5003;71798;54.942;73.444;2023-09-18T08:01:27;28.00;23.00;13.00
80861;PMS5003;71798;54.942;73.444;2023-09-18T08:03:53;23.25;19.25;12.00
80861;PMS5003;71798;54.942;73.444;2023-09-18T08:06:19;24.75;21.00;12.00
80861;PMS5003;71798;54.942;73.444;2023-09-18T08:08:47;13.00;12.00;7.00
80861;PMS5003;71798;54.942;73.444;2023-09-18T08:11:13;15.00;13.00;8.00
80861;PMS5003;71798;54.942;73.444;2023-09-18T08:13:40;13.75;12.00;8.00
80861;PMS5003;71798;54.942;73.444;2023-09-18T08:16:06;15.75;13.00;8.00
80861;PMS5003;71798;54.942;73.444;2023-09-18T08:18:32;14.00;12.00;8.00
80861;PMS5003;71798;54.942;73.444;2023-09-18T08:20:59;13.00;12.00;8.00
80861;PMS5003;71798;54.942;73.444;2023-09-18T08:23:25;17.00;15.00;10.00
80861;PMS5003;71798;54.942;73.444;2023-09-18T08:25:52;25.50;23.00;16.25
80861;PMS5003;71798;54.942;73.444;2023-09-18T08:28:22;19.00;16.00;10.00
80861;PMS5003;71798;54.942;73.444;2023-09-18T08:30:48;17.75;15.00;9.00
80861;PMS5003;71798;54.942;73.444;2023-09-18T08:33:14;19.00;17.00;10.00
80861;PMS5003;71798;54.942;73.444;2023-09-18T08:35:40;20.00;17.00;11.00
80861;PMS5003;71798;54.942;73.444;2023-09-18T08:38:06;17.00;15.50;9.75
80861;PMS5003;71798;54.942;73.444;2023-09-18T08:40:35;19.00;17.00;11.00
80861;PMS5003;71798;54.942;73.444;2023-09-18T08:43:02;16.00;15.00;9.00
80861;PMS5003;71798;54.942;73.444;2023-09-18T08:45:46;17.50;16.00;9.50
80861;PMS5003;71798;54.942;73.444;2023-09-18T08:48:14;20.25;17.50;10.00
80861;PMS5003;71798;54.942;73.444;2023-09-18T08:50:40;18.50;16.75;11.00
80861;PMS5003;71798;54.942;73.444;2023-09-18T08:53:07;15.00;13.00;9.00
80861;PMS5003;71798;54.942;73.444;2023-09-18T08:55:35;18.00;14.50;9.50
80861;PMS5003;71798;54.942;73.444;2023-09-18T08:58:01;17.00;15.00;9.00
80861;PMS5003;71798;54.942;73.444;2023-09-18T09:00:28;18.50;16.25;10.00
80861;PMS5003;71798;54.942;73.444;2023-09-18T09:02:55;20.00;17.00;10.00
80861;PMS5003;71798;54.942;73.444;2023-09-18T09:05:21;16.00;14.50;9.00
80861;PMS5003;71798;54.942;73.444;2023-09-18T09:07:48;16.00;14.50;9.00
80861;PMS5003;71798;54.942;73.444;2023-09-18T09:10:14;17.00;14.00;9.00
80861;PMS5003;71798;54.942;73.444;2023-09-18T09:12:47;15.00;14.00;9.00
80861;PMS5003;71798;54.942;73.444;2023-09-18T09:15:14;18.00;16.00;10.00
80861;PMS5003;71798;54.942;73.444;2023-09-18T09:17:41;17.00;14.75;9.00
80861;PMS5003;71798;54.942;73.444;2023-09-18T09:20:12;16.25;15.00;10.00
80861;PMS5003;71798;54.942;73.444;2023-09-18T09:22:39;17.00;15.00;8.75
80861;PMS5003;71798;54.942;73.444;2023-09-18T09:27:44;22.00;19.00;11.00
80861;PMS5003;71798;54.942;73.444;2023-09-18T09:30:10;19.00;17.25;10.25
80861;PMS5003;71798;54.942;73.444;2023-09-18T09:32:37;20.00;18.00;12.00
80861;PMS5003;71798;54.942;73.444;2023-09-18T09:35:03;24.25;21.75;14.00
80861;PMS5003;71798;54.942;73.444;2023-09-18T09:37:32;23.00;20.00;13.00
80861;PMS5003;71798;54.942;73.444;2023-09-18T09:40:02;23.00;20.00;13.00
80861;PMS5003;71798;54.942;73.444;2023-09-18T09:42:40;25.25;22.50;15.00
80861;PMS5003;71798;54.942;73.444;2023-09-18T09:45:14;24.00;20.25;12.50
80861;PMS5003;71798;54.942;73.444;2023-09-18T09:47:43;25.00;22.00;14.00
80861;PMS5003;71798;54.942;73.444;2023-09-18T09:50:11;21.50;19.00;11.50
80861;PMS5003;71798;54.942;73.444;2023-09-18T09:52:42;22.75;20.75;13.25
80861;PMS5003;71798;54.942;73.444;2023-09-18T09:57:48;23.00;20.00;12.00
80861;PMS5003;71798;54.942;73.444;2023-09-18T10:00:15;22.00;20.00;13.00
80861;PMS5003;71798;54.942;73.444;2023-09-18T10:03:08;22.00;18.25;11.00
80861;PMS5003;71798;54.942;73.444;2023-09-18T10:05:35;30.00;24.00;14.00
80861;PMS5003;71798;54.942;73.444;2023-09-18T10:08:04;22.75;20.00;12.00
80861;PMS5003;71798;54.942;73.444;2023-09-18T10:10:31;22.00;19.00;12.00
80861;PMS5003;71798;54.942;73.444;2023-09-18T10:13:00;21.00;19.00;11.00
80861;PMS5003;71798;54.942;73.444;2023-09-18T10:15:28;22.75;19.50;11.50
80861;PMS5003;71798;54.942;73.444;2023-09-18T10:17:56;22.00;20.25;12.50
80861;PMS5003;71798;54.942;73.444;2023-09-18T10:20:25;20.00;17.00;11.00
80861;PMS5003;71798;54.942;73.444;2023-09-18T10:22:53;21.00;20.00;11.25
80861;PMS5003;71798;54.942;73.444;2023-09-18T10:25:21;19.25;16.00;9.75
80861;PMS5003;71798;54.942;73.444;2023-09-18T10:27:49;22.75;20.00;12.00
80861;PMS5003;71798;54.942;73.444;2023-09-18T10:30:15;20.75;18.25;12.00
80861;PMS5003;71798;54.942;73.444;2023-09-18T10:32:44;28.75;24.25;15.00
80861;PMS5003;71798;54.942;73.444;2023-09-18T10:35:14;23.25;19.50;12.00
80861;PMS5003;71798;54.942;73.444;2023-09-18T10:37:41;22.00;19.25;13.00
80861;PMS5003;71798;54.942;73.444;2023-09-18T10:40:08;20.00;18.00;11.00
80861;PMS5003;71798;54.942;73.444;2023-09-18T10:42:38;20.00;17.00;10.00
80861;PMS5003;71798;54.942;73.444;2023-09-18T10:45:08;20.00;17.00;10.00
80861;PMS5003;71798;54.942;73.444;2023-09-18T10:47:40;18.00;15.00;9.00
80861;PMS5003;71798;54.942;73.444;2023-09-18T10:50:08;18.75;16.25;11.00
80861;PMS5003;71798;54.942;73.444;2023-09-18T10:53:38;21.00;18.50;11.00
80861;PMS5003;71798;54.942;73.444;2023-09-18T10:57:09;25.50;21.75;13.25
80861;PMS5003;71798;54.942;73.444;2023-09-18T11:04:20;17.00;15.00;9.00
80861;PMS5003;71798;54.942;73.444;2023-09-18T11:09:31;16.00;14.00;9.00
80861;PMS5003;71798;54.942;73.444;2023-09-18T11:14:56;17.00;16.00;11.00
80861;PMS5003;71798;54.942;73.444;2023-09-18T11:17:33;23.50;21.00;14.00
80861;PMS5003;71798;54.942;73.444;2023-09-18T11:20:11;23.00;20.00;13.00
80861;PMS5003;71798;54.942;73.444;2023-09-18T11:23:34;14.25;13.00;8.00
80861;PMS5003;71798;54.942;73.444;2023-09-18T11:27:57;15.00;13.00;8.00
80861;PMS5003;71798;54.942;73.444;2023-09-18T11:30:23;13.00;11.50;7.25
80861;PMS5003;71798;54.942;73.444;2023-09-18T11:32:52;19.00;15.00;9.00
80861;PMS5003;71798;54.942;73.444;2023-09-18T11:35:21;10.00;8.50;5.25
80861;PMS5003;71798;54.942;73.444;2023-09-18T11:37:47;15.00;12.50;7.00
80861;PMS5003;71798;54.942;73.444;2023-09-18T11:40:29;15.25;13.00;8.00
80861;PMS5003;71798;54.942;73.444;2023-09-18T11:45:44;12.00;10.00;6.50
80861;PMS5003;71798;54.942;73.444;2023-09-18T11:48:15;16.00;14.00;9.00
80861;PMS5003;71798;54.942;73.444;2023-09-18T11:50:42;29.00;25.00;15.00
80861;PMS5003;71798;54.942;73.444;2023-09-18T11:53:08;16.50;14.50;9.00
80861;PMS5003;71798;54.942;73.444;2023-09-18T11:55:35;12.00;11.00;7.00
80861;PMS5003;71798;54.942;73.444;2023-09-18T11:58:03;18.75;16.00;10.50
80861;PMS5003;71798;54.942;73.444;2023-09-18T12:00:30;15.00;13.00;9.00
80861;PMS5003;71798;54.942;73.444;2023-09-18T12:02:56;12.00;10.75;7.00
80861;PMS5003;71798;54.942;73.444;2023-09-18T12:05:23;16.50;15.00;9.00
80861;PMS5003;71798;54.942;73.444;2023-09-18T12:07:52;12.00;10.00;6.00
80861;PMS5003;71798;54.942;73.444;2023-09-18T12:10:19;12.25;11.75;8.00
80861;PMS5003;71798;54.942;73.444;2023-09-18T12:12:49;15.25;12.75;8.00
80861;PMS5003;71798;54.942;73.444;2023-09-18T12:15:18;14.00;13.00;8.00
80861;PMS5003;71798;54.942;73.444;2023-09-18T12:17:45;16.00;14.00;9.00
80861;PMS5003;71798;54.942;73.444;2023-09-18T12:20:15;16.00;13.00;8.00
80861;PMS5003;71798;54.942;73.444;2023-09-18T12:22:47;16.00;13.50;9.00
80861;PMS5003;71798;54.942;73.444;2023-09-18T12:25:14;19.00;15.00;9.00
80861;PMS5003;71798;54.942;73.444;2023-09-18T12:27:40;19.00;15.00;9.00
80861;PMS5003;71798;54.942;73.444;2023-09-18T12:30:07;16.00;13.00;8.00
80861;PMS5003;71798;54.942;73.444;2023-09-18T12:32:35;21.00;17.25;11.00
80861;PMS5003;71798;54.942;73.444;2023-09-18T12:35:04;20.00;17.00;11.00
80861;PMS5003;71798;54.942;73.444;2023-09-18T12:37:34;20.00;18.00;12.00
80861;PMS5003;71798;54.942;73.444;2023-09-18T12:40:00;21.00;18.00;13.00
80861;PMS5003;71798;54.942;73.444;2023-09-18T12:42:26;21.25;18.75;11.00
80861;PMS5003;71798;54.942;73.444;2023-09-18T12:44:53;20.75;18.00;11.75
80861;PMS5003;71798;54.942;73.444;2023-09-18T12:47:20;20.00;16.50;10.00
80861;PMS5003;71798;54.942;73.444;2023-09-18T12:49:46;17.00;14.25;8.75
80861;PMS5003;71798;54.942;73.444;2023-09-18T12:52:12;19.50;16.75;9.50
80861;PMS5003;71798;54.942;73.444;2023-09-18T12:54:40;18.00;15.00;9.00
80861;PMS5003;71798;54.942;73.444;2023-09-18T12:57:06;18.00;15.75;10.00
80861;PMS5003;71798;54.942;73.444;2023-09-18T12:59:33;19.00;17.00;10.50
80861;PMS5003;71798;54.942;73.444;2023-09-18T13:02:02;21.75;18.50;10.75
80861;PMS5003;71798;54.942;73.444;2023-09-18T13:04:31;27.00;23.00;15.00
80861;PMS5003;71798;54.942;73.444;2023-09-18T13:07:06;20.00;18.00;11.00
80861;PMS5003;71798;54.942;73.444;2023-09-18T13:09:33;19.25;16.75;10.25
80861;PMS5003;71798;54.942;73.444;2023-09-18T13:12:00;19.00;17.75;11.00
80861;PMS5003;71798;54.942;73.444;2023-09-18T13:14:27;23.25;19.25;11.00
80861;PMS5003;71798;54.942;73.444;2023-09-18T13:16:53;23.00;18.00;11.25
80861;PMS5003;71798;54.942;73.444;2023-09-18T13:19:25;26.00;22.00;13.00
80861;PMS5003;71798;54.942;73.444;2023-09-18T13:21:51;24.25;20.00;12.00
80861;PMS5003;71798;54.942;73.444;2023-09-18T13:24:27;24.00;21.25;13.25
80861;PMS5003;71798;54.942;73.444;2023-09-18T13:26:54;30.00;24.00;13.00
80861;PMS5003;71798;54.942;73.444;2023-09-18T13:29:21;40.25;32.00;20.25
80861;PMS5003;71798;54.942;73.444;2023-09-18T13:31:47;33.00;26.75;17.00
80861;PMS5003;71798;54.942;73.444;2023-09-18T13:34:14;34.00;27.00;16.00
80861;PMS5003;71798;54.942;73.444;2023-09-18T13:36:44;34.00;27.75;17.00
80861;PMS5003;71798;54.942;73.444;2023-09-18T13:39:11;34.00;27.50;17.00
80861;PMS5003;71798;54.942;73.444;2023-09-18T13:41:38;36.00;29.00;19.00
80861;PMS5003;71798;54.942;73.444;2023-09-18T13:44:04;28.25;23.25;15.00
80861;PMS5003;71798;54.942;73.444;2023-09-18T13:46:30;26.00;22.00;14.00
80861;PMS5003;71798;54.942;73.444;2023-09-18T13:48:57;30.25;25.00;16.75
80861;PMS5003;71798;54.942;73.444;2023-09-18T13:51:23;29.00;24.00;15.50
80861;PMS5003;71798;54.942;73.444;2023-09-18T13:53:49;30.00;25.00;16.00
80861;PMS5003;71798;54.942;73.444;2023-09-18T13:56:15;29.00;23.00;13.00
80861;PMS5003;71798;54.942;73.444;2023-09-18T13:58:41;27.00;23.00;14.00
80861;PMS5003;71798;54.942;73.444;2023-09-18T14:01:08;32.25;25.00;15.00
80861;PMS5003;71798;54.942;73.444;2023-09-18T14:03:34;34.50;27.00;17.00
80861;PMS5003;71798;54.942;73.444;2023-09-18T14:06:00;25.50;23.00;14.25
80861;PMS5003;71798;54.942;73.444;2023-09-18T14:08:26;29.25;24.00;15.00
80861;PMS5003;71798;54.942;73.444;2023-09-18T14:10:52;31.00;25.00;15.00
80861;PMS5003;71798;54.942;73.444;2023-09-18T14:13:18;25.25;22.00;14.00
80861;PMS5003;71798;54.942;73.444;2023-09-18T14:15:44;28.25;22.75;14.75